Asbury, Iowa
Current Conditions -  °F | °C
As of 3:53 AM on Thursday 29 Jan 2015 (Local Time) from KDBQ Reporting Station
Haze Haze  
Wind Chill: -6°   Ceiling: 400
Heat Index: -1°   Visibility: 2mi
Dew Point: -2°   Wind: 13mph
Humidity: 92%   Direction: 340°NNW
Pressure: 29.76"   Gusts: NA
Location:  42.522°N, 90.7782°W
Report Text: KDBQ 290953Z AUTO 34011KT 2SM BR OVC004 M01/M02 A2976 RMK AO2 SLP091 T10061017
Loading
Personal Weather Stations






























Interactive Weather Map New forecast layout! Learn more

10-Day Weather Forecast

Advertisements
Track Severe Weather on mobile